Time;durP1;ratioP1;P1;durP2;ratioP2;P2;SDS_P1;SDS_P2;PMS_P1;PMS_P2;Temp;Humidity;BMP_temperature;BMP_pressure;BME280_temperature;BME280_humidity;BME280_pressure;Samples;Min_cycle;Max_cycle;Signal;HPM_P1;HPM_P2
2020/12/24 12:54:44;;;;;;;;;;;4.30;99.90;;;;;;5693519;23;19925;-81
2020/12/24 12:57:10;;;;;;;;;;;4.60;99.90;;;;;;5251695;23;19925;-80
2020/12/24 12:59:38;;;;;;;;;;;3.70;99.90;;;;;;5159245;23;19910;-83
2020/12/24 13:02:05;;;;;;;;;;;4.80;99.90;;;;;;5372360;23;19925;-80
2020/12/24 17:07:10;;;;;;;;;;;4.10;99.90;;;;;;5165768;23;20405;-77
2020/12/24 17:09:38;;;;;;;;;;;3.10;99.90;;;;;;5018133;28;20259;-78
2020/12/24 17:12:05;;;;;;;;;;;3.10;99.90;;;;;;5021181;28;19940;-77
2020/12/24 17:14:33;;;;;;;;;;;3.10;99.90;;;;;;5020577;28;19926;-77
2020/12/24 17:17:19;;;;;;;;;;;3.10;99.90;;;;;;5037104;28;19909;-79
2020/12/24 17:19:46;;;;;;;;;;;3.10;99.90;;;;;;5008768;23;20362;-74
2020/12/24 17:22:31;;;;;;;;;;;3.10;99.90;;;;;;4981425;28;19926;-78
2020/12/24 17:25:19;;;;;;;;;;;3.10;99.90;;;;;;4993320;28;19910;-78
2020/12/24 17:27:47;;;;;;;;;;;3.10;99.90;;;;;;4975316;28;19926;-77
2020/12/24 17:30:15;;;;;;;;;;;3.10;99.90;;;;;;4979372;28;19980;-77
2020/12/24 17:32:44;;;;;;;;;;;3.00;99.90;;;;;;4981010;28;19981;-77
2020/12/24 17:35:11;;;;;;;;;;;3.00;99.90;;;;;;4980132;28;19962;-77
2020/12/24 17:37:39;;;;;;;;;;;3.00;99.90;;;;;;4978654;28;19934;-77
2020/12/24 17:40:05;;;;;;;;;;;3.00;99.90;;;;;;4978446;28;20036;-77
2020/12/24 17:42:31;;;;;;;;;;;3.00;99.90;;;;;;4977794;28;19938;-77
2020/12/24 17:44:58;;;;;;;;;;;3.00;99.90;;;;;;4977189;28;19953;-77
2020/12/24 17:47:25;;;;;;;;;;;3.00;99.90;;;;;;4975700;28;19934;-77
2020/12/24 17:49:51;;;;;;;;;;;2.90;99.90;;;;;;4980570;28;19926;-78
2020/12/24 17:52:17;;;;;;;;;;;2.90;99.90;;;;;;5120025;23;19993;-79
2020/12/24 17:54:44;;;;;;;;;;;2.90;99.90;;;;;;5019527;28;20266;-75
2020/12/24 17:57:10;;;;;;;;;;;2.90;99.90;;;;;;5019345;28;19984;-76
2020/12/24 17:59:36;;;;;;;;;;;3.00;99.90;;;;;;5016679;28;19925;-75
2020/12/24 18:02:03;;;;;;;;;;;2.90;99.90;;;;;;5016750;28;19930;-76
2020/12/24 18:04:31;;;;;;;;;;;2.90;99.90;;;;;;5016617;28;19980;-75
2020/12/24 18:06:58;;;;;;;;;;;2.90;99.90;;;;;;5020774;28;19926;-76
2020/12/24 18:09:26;;;;;;;;;;;2.90;99.90;;;;;;5018866;28;19925;-75
2020/12/24 18:11:53;;;;;;;;;;;2.90;99.90;;;;;;5016526;28;19925;-75
2020/12/24 18:14:21;;;;;;;;;;;2.90;99.90;;;;;;5016661;28;19925;-75
2020/12/24 18:16:52;;;;;;;;;;;2.90;99.90;;;;;;5016566;28;19937;-75
2020/12/24 18:19:20;;;;;;;;;;;2.90;99.90;;;;;;5016382;28;19925;-75
2020/12/24 18:21:49;;;;;;;;;;;2.80;99.90;;;;;;5018475;28;19929;-75
2020/12/24 18:24:15;;;;;;;;;;;2.80;99.90;;;;;;5018057;28;20398;-78
2020/12/24 18:26:42;;;;;;;;;;;2.70;99.90;;;;;;5018307;28;19925;-75
2020/12/24 18:29:08;;;;;;;;;;;2.80;99.90;;;;;;5016177;28;19976;-75
2020/12/24 18:31:34;;;;;;;;;;;2.80;99.90;;;;;;5016084;28;20270;-75
2020/12/24 18:34:00;;;;;;;;;;;2.80;99.90;;;;;;5016486;28;19933;-75
2020/12/24 18:36:27;;;;;;;;;;;2.80;99.90;;;;;;5016114;28;19948;-76
2020/12/24 18:38:54;;;;;;;;;;;2.80;99.90;;;;;;5015921;28;19925;-76
2020/12/24 18:41:20;;;;;;;;;;;2.70;99.90;;;;;;5018427;28;20261;-76
2020/12/24 18:43:46;;;;;;;;;;;2.70;99.90;;;;;;5017018;28;19926;-72
2020/12/24 18:46:13;;;;;;;;;;;2.70;99.90;;;;;;5016009;28;19936;-76
2020/12/24 18:48:42;;;;;;;;;;;2.80;99.90;;;;;;5017433;28;19937;-74
2020/12/24 18:51:11;;;;;;;;;;;2.70;99.90;;;;;;5017226;28;19932;-75
2020/12/24 18:53:38;;;;;;;;;;;2.80;99.90;;;;;;5015970;28;19992;-75
2020/12/24 18:56:05;;;;;;;;;;;2.80;99.90;;;;;;5017051;28;19933;-75
2020/12/24 18:58:31;;;;;;;;;;;2.80;99.90;;;;;;5015423;28;19929;-75
2020/12/24 19:00:58;;;;;;;;;;;2.70;99.90;;;;;;5015662;28;19932;-76
2020/12/24 19:03:26;;;;;;;;;;;2.70;99.90;;;;;;5015511;28;19935;-75
2020/12/24 19:05:53;;;;;;;;;;;2.70;99.90;;;;;;5015856;28;19938;-75
2020/12/24 19:08:21;;;;;;;;;;;2.70;99.90;;;;;;5015759;28;19925;-76
2020/12/24 19:10:50;;;;;;;;;;;2.60;99.90;;;;;;5015632;28;19936;-76
2020/12/24 19:13:16;;;;;;;;;;;2.60;99.90;;;;;;5015458;28;20354;-76
2020/12/24 19:15:43;;;;;;;;;;;2.60;99.90;;;;;;5015557;28;19933;-76
2020/12/24 19:18:11;;;;;;;;;;;2.70;99.90;;;;;;5015736;28;19926;-75
2020/12/24 19:20:38;;;;;;;;;;;2.70;99.90;;;;;;5015631;28;20040;-76
2020/12/24 19:23:06;;;;;;;;;;;2.70;99.90;;;;;;5015605;28;19925;-76
2020/12/24 19:30:45;;;;;;;;;;;2.70;99.90;;;;;;6099077;23;19920;-77
2020/12/24 19:33:12;;;;;;;;;;;2.70;99.90;;;;;;5015120;28;19933;-77
2020/12/24 19:35:38;;;;;;;;;;;2.70;99.90;;;;;;5023766;28;19926;-79
2020/12/24 19:38:04;;;;;;;;;;;2.70;99.90;;;;;;5396766;23;19925;-77
2020/12/24 19:46:13;;;;;;;;;;;2.00;99.90;;;;;;5254982;23;19925;-75
2020/12/24 19:48:39;;;;;;;;;;;2.60;99.90;;;;;;5014360;28;19988;-75
2020/12/24 19:51:06;;;;;;;;;;;2.60;99.90;;;;;;5015250;28;19936;-75
2020/12/24 19:53:32;;;;;;;;;;;2.60;99.90;;;;;;5015772;28;19936;-76
2020/12/24 19:56:00;;;;;;;;;;;2.50;99.90;;;;;;5000201;28;19988;-75
2020/12/24 19:58:27;;;;;;;;;;;2.50;99.90;;;;;;5006532;28;20338;-75
2020/12/24 20:00:56;;;;;;;;;;;2.50;99.90;;;;;;5015141;28;19948;-75
2020/12/24 20:03:25;;;;;;;;;;;2.50;99.90;;;;;;5015233;28;19964;-76
2020/12/24 20:05:53;;;;;;;;;;;2.40;99.90;;;;;;5015064;28;19925;-75
2020/12/24 20:08:21;;;;;;;;;;;2.40;99.90;;;;;;5021143;28;19925;-79
2020/12/24 20:10:49;;;;;;;;;;;1.70;99.90;;;;;;5017779;28;20024;-75
2020/12/24 20:13:16;;;;;;;;;;;2.30;99.90;;;;;;5020017;28;19926;-77
2020/12/24 20:15:43;;;;;;;;;;;2.30;99.90;;;;;;5018798;28;19926;-75
2020/12/24 20:18:09;;;;;;;;;;;2.20;99.90;;;;;;5018587;28;19937;-75
2020/12/24 20:20:36;;;;;;;;;;;2.10;99.90;;;;;;5020076;28;19933;-75
2020/12/24 20:23:02;;;;;;;;;;;2.10;99.90;;;;;;5018332;28;19925;-76
2020/12/24 20:25:29;;;;;;;;;;;2.10;99.90;;;;;;5018727;28;20361;-76
2020/12/24 20:27:55;;;;;;;;;;;2.00;99.90;;;;;;5018810;28;19950;-76
2020/12/24 20:30:21;;;;;;;;;;;1.90;99.90;;;;;;5022807;28;19957;-76
2020/12/24 20:32:50;;;;;;;;;;;1.90;99.90;;;;;;5019466;28;19936;-76
2020/12/24 20:35:16;;;;;;;;;;;1.80;99.90;;;;;;5021043;28;19937;-77
2020/12/24 20:37:43;;;;;;;;;;;1.80;99.90;;;;;;5019848;28;19925;-77
2020/12/24 20:40:09;;;;;;;;;;;1.80;99.90;;;;;;5019534;28;20381;-77
2020/12/24 20:42:35;;;;;;;;;;;1.70;99.90;;;;;;5019727;28;19936;-77
2020/12/24 20:45:02;;;;;;;;;;;1.70;99.90;;;;;;5022231;28;19948;-77
2020/12/24 20:47:29;;;;;;;;;;;1.70;99.90;;;;;;5020161;28;19929;-77
2020/12/24 20:49:56;;;;;;;;;;;1.70;99.90;;;;;;5075007;23;19925;-80
2020/12/24 20:52:22;;;;;;;;;;;1.60;99.90;;;;;;5146295;23;20338;-78
2020/12/24 20:54:50;;;;;;;;;;;1.70;99.90;;;;;;5019698;28;19969;-78
2020/12/24 20:57:16;;;;;;;;;;;1.80;99.90;;;;;;5019602;28;19925;-78
2020/12/24 20:59:42;;;;;;;;;;;1.80;99.90;;;;;;5019599;28;19980;-78
2020/12/24 21:02:08;;;;;;;;;;;1.80;99.90;;;;;;5017921;28;19940;-78
2020/12/24 21:04:35;;;;;;;;;;;1.80;99.90;;;;;;5018615;28;20350;-78
2020/12/24 21:07:01;;;;;;;;;;;1.80;99.90;;;;;;5018731;28;19937;-78
2020/12/24 21:09:27;;;;;;;;;;;1.80;99.90;;;;;;5019842;28;19936;-78
2020/12/24 21:11:54;;;;;;;;;;;1.90;99.90;;;;;;5018648;28;19987;-78
2020/12/24 21:14:21;;;;;;;;;;;1.90;99.90;;;;;;5019211;28;19932;-78
2020/12/24 21:16:47;;;;;;;;;;;1.90;99.90;;;;;;5017775;28;19925;-78
2020/12/24 21:19:14;;;;;;;;;;;1.90;99.90;;;;;;5017686;28;19929;-78
2020/12/24 21:21:40;;;;;;;;;;;1.90;99.90;;;;;;5017734;28;19933;-78
2020/12/24 21:24:06;;;;;;;;;;;1.90;99.90;;;;;;5017898;28;20287;-78
2020/12/24 21:26:33;;;;;;;;;;;2.00;99.90;;;;;;5017843;28;19937;-78
2020/12/24 21:29:00;;;;;;;;;;;2.00;99.90;;;;;;5017533;28;20370;-78
2020/12/24 21:31:26;;;;;;;;;;;1.90;99.90;;;;;;5000118;28;20270;-78
2020/12/24 21:33:52;;;;;;;;;;;1.90;99.90;;;;;;5164945;23;19932;-75
2020/12/24 21:36:19;;;;;;;;;;;1.90;99.90;;;;;;5095628;23;19925;-80
2020/12/24 21:38:45;;;;;;;;;;;1.80;99.90;;;;;;5018097;28;19979;-76
2020/12/24 21:41:11;;;;;;;;;;;1.80;99.90;;;;;;5018403;28;19926;-76
2020/12/24 21:43:37;;;;;;;;;;;1.80;99.90;;;;;;5017528;28;19925;-76
2020/12/24 21:46:05;;;;;;;;;;;1.70;99.90;;;;;;5017288;28;19976;-76
2020/12/24 21:48:31;;;;;;;;;;;1.70;99.90;;;;;;5017159;28;20395;-76
2020/12/24 21:51:00;;;;;;;;;;;1.70;99.90;;;;;;5017263;28;20355;-76
2020/12/24 21:53:26;;;;;;;;;;;1.70;99.90;;;;;;5017184;28;19925;-76
2020/12/24 21:55:52;;;;;;;;;;;1.60;99.90;;;;;;5017470;28;19936;-76
2020/12/24 21:58:19;;;;;;;;;;;1.70;99.90;;;;;;5016964;28;19952;-76
2020/12/24 22:00:45;;;;;;;;;;;1.70;99.90;;;;;;5016897;28;19925;-76
2020/12/24 22:03:12;;;;;;;;;;;1.70;99.90;;;;;;5016993;28;19944;-76
2020/12/24 22:05:41;;;;;;;;;;;1.70;99.90;;;;;;5016830;28;19926;-76
2020/12/24 22:08:07;;;;;;;;;;;1.80;99.90;;;;;;5016856;28;20000;-76
2020/12/24 22:10:33;;;;;;;;;;;1.80;99.90;;;;;;5016609;28;19980;-76
2020/12/24 22:13:00;;;;;;;;;;;1.90;99.90;;;;;;5016684;28;19926;-76
2020/12/24 22:15:28;;;;;;;;;;;1.90;99.90;;;;;;5016936;28;19933;-76
2020/12/24 22:17:54;;;;;;;;;;;1.90;99.90;;;;;;5016459;28;19984;-76
2020/12/24 22:20:22;;;;;;;;;;;1.90;99.90;;;;;;5016694;28;20247;-76
2020/12/24 22:22:48;;;;;;;;;;;1.90;99.90;;;;;;5016447;28;19932;-76
2020/12/24 22:25:14;;;;;;;;;;;1.90;99.90;;;;;;5016359;28;19925;-76
2020/12/24 22:27:40;;;;;;;;;;;1.90;99.90;;;;;;5016359;28;20366;-76
2020/12/24 22:30:07;;;;;;;;;;;1.90;99.90;;;;;;5016267;28;19944;-76
2020/12/24 22:32:33;;;;;;;;;;;1.90;99.90;;;;;;5016140;28;19929;-76
2020/12/24 22:34:59;;;;;;;;;;;1.80;99.90;;;;;;5015772;28;20266;-76
2020/12/24 22:37:27;;;;;;;;;;;1.80;99.90;;;;;;5016039;28;19929;-76
2020/12/24 22:39:53;;;;;;;;;;;1.80;99.90;;;;;;5016408;28;19937;-76
2020/12/24 22:42:19;;;;;;;;;;;1.80;99.90;;;;;;5015939;28;19932;-76
2020/12/24 22:44:45;;;;;;;;;;;1.80;99.90;;;;;;5015942;28;19999;-76
2020/12/24 22:47:12;;;;;;;;;;;1.80;99.90;;;;;;5016109;28;19926;-76
2020/12/24 22:49:38;;;;;;;;;;;1.70;99.90;;;;;;5016350;28;19951;-76
2020/12/24 22:52:04;;;;;;;;;;;1.70;99.90;;;;;;5023682;28;19925;-76
2020/12/24 22:54:32;;;;;;;;;;;1.60;99.90;;;;;;5018524;28;19933;-76
2020/12/24 22:56:58;;;;;;;;;;;1.60;99.90;;;;;;5015958;28;19926;-76
2020/12/24 22:59:24;;;;;;;;;;;1.50;99.90;;;;;;5015691;28;19925;-76
2020/12/24 23:01:50;;;;;;;;;;;1.40;99.90;;;;;;5015774;28;19925;-76
2020/12/24 23:04:17;;;;;;;;;;;1.40;99.90;;;;;;5015823;28;19926;-76
2020/12/24 23:06:43;;;;;;;;;;;1.30;99.90;;;;;;5015751;28;19929;-76
2020/12/24 23:09:09;;;;;;;;;;;1.30;99.90;;;;;;5015573;28;20338;-76
2020/12/24 23:11:37;;;;;;;;;;;1.30;99.90;;;;;;5015607;28;19929;-75
2020/12/24 23:14:03;;;;;;;;;;;1.30;99.90;;;;;;5015554;28;19936;-75
2020/12/24 23:16:29;;;;;;;;;;;1.30;99.90;;;;;;5015803;28;19945;-76
2020/12/24 23:18:55;;;;;;;;;;;1.20;99.90;;;;;;5015663;28;19929;-75
2020/12/24 23:21:22;;;;;;;;;;;1.20;99.90;;;;;;5015519;28;20346;-76
2020/12/24 23:23:48;;;;;;;;;;;1.10;99.90;;;;;;5015488;28;19953;-76
2020/12/24 23:26:15;;;;;;;;;;;1.10;99.90;;;;;;5015522;28;19938;-75
2020/12/24 23:28:42;;;;;;;;;;;1.10;99.90;;;;;;5015393;28;19925;-76
2020/12/24 23:31:09;;;;;;;;;;;1.10;99.90;;;;;;5015226;28;20305;-76
2020/12/24 23:33:35;;;;;;;;;;;1.10;99.90;;;;;;5015850;28;19941;-76
2020/12/24 23:36:02;;;;;;;;;;;1.20;99.90;;;;;;5015142;28;19925;-76
2020/12/24 23:38:28;;;;;;;;;;;1.20;99.90;;;;;;5015496;28;20247;-76
2020/12/24 23:40:54;;;;;;;;;;;1.10;99.90;;;;;;5015321;28;19925;-76
2020/12/24 23:43:20;;;;;;;;;;;1.10;99.90;;;;;;5015174;28;19992;-76
2020/12/24 23:45:47;;;;;;;;;;;1.10;99.90;;;;;;5017887;28;20338;-76
2020/12/24 23:48:14;;;;;;;;;;;1.00;99.90;;;;;;5019690;28;19932;-76
2020/12/24 23:50:40;;;;;;;;;;;1.00;99.90;;;;;;5019564;28;19972;-76
2020/12/24 23:53:06;;;;;;;;;;;1.00;99.90;;;;;;5019300;28;19980;-76
2020/12/24 23:55:33;;;;;;;;;;;1.00;99.90;;;;;;5019197;28;19937;-76
2020/12/24 23:57:59;;;;;;;;;;;1.00;99.90;;;;;;5019140;28;19925;-76
